sensor_id;sensor_type;location;lat;lon;timestamp;P1;durP1;ratioP1;P2;durP2;ratioP2
74749;SDS011;63269;53.330;-6.288;2023-04-24T00:00:39;13.73;;;8.75;;
74749;SDS011;63269;53.330;-6.288;2023-04-24T00:03:05;24.10;;;17.30;;
74749;SDS011;63269;53.330;-6.288;2023-04-24T00:05:32;15.52;;;9.40;;
74749;SDS011;63269;53.330;-6.288;2023-04-24T00:07:57;15.45;;;10.80;;
74749;SDS011;63269;53.330;-6.288;2023-04-24T00:10:23;29.40;;;22.33;;
74749;SDS011;63269;53.330;-6.288;2023-04-24T00:12:48;17.98;;;12.20;;
74749;SDS011;63269;53.330;-6.288;2023-04-24T00:15:14;16.95;;;10.77;;
74749;SDS011;63269;53.330;-6.288;2023-04-24T00:17:39;15.25;;;11.23;;
74749;SDS011;63269;53.330;-6.288;2023-04-24T00:20:05;16.02;;;10.98;;
74749;SDS011;63269;53.330;-6.288;2023-04-24T00:22:31;16.58;;;11.27;;
74749;SDS011;63269;53.330;-6.288;2023-04-24T00:24:57;15.27;;;10.63;;
74749;SDS011;63269;53.330;-6.288;2023-04-24T00:27:23;14.05;;;10.20;;
74749;SDS011;63269;53.330;-6.288;2023-04-24T00:29:48;12.98;;;9.80;;
74749;SDS011;63269;53.330;-6.288;2023-04-24T00:32:14;11.82;;;9.43;;
74749;SDS011;63269;53.330;-6.288;2023-04-24T00:34:40;13.90;;;9.80;;
74749;SDS011;63269;53.330;-6.288;2023-04-24T00:37:06;12.52;;;9.07;;
74749;SDS011;63269;53.330;-6.288;2023-04-24T00:39:31;14.15;;;9.45;;
74749;SDS011;63269;53.330;-6.288;2023-04-24T00:41:57;14.68;;;9.25;;
74749;SDS011;63269;53.330;-6.288;2023-04-24T00:44:23;13.85;;;9.10;;
74749;SDS011;63269;53.330;-6.288;2023-04-24T00:46:50;13.13;;;8.77;;
74749;SDS011;63269;53.330;-6.288;2023-04-24T00:49:19;11.50;;;8.38;;
74749;SDS011;63269;53.330;-6.288;2023-04-24T00:51:48;13.48;;;9.65;;
74749;SDS011;63269;53.330;-6.288;2023-04-24T00:54:14;13.43;;;9.63;;
74749;SDS011;63269;53.330;-6.288;2023-04-24T00:56:40;10.73;;;7.90;;
74749;SDS011;63269;53.330;-6.288;2023-04-24T00:59:07;12.10;;;8.38;;
74749;SDS011;63269;53.330;-6.288;2023-04-24T01:01:33;10.77;;;8.07;;
74749;SDS011;63269;53.330;-6.288;2023-04-24T01:03:58;9.77;;;7.40;;
74749;SDS011;63269;53.330;-6.288;2023-04-24T01:06:26;11.90;;;7.70;;
74749;SDS011;63269;53.330;-6.288;2023-04-24T01:08:53;9.77;;;7.07;;
74749;SDS011;63269;53.330;-6.288;2023-04-24T01:11:21;9.38;;;7.22;;
74749;SDS011;63269;53.330;-6.288;2023-04-24T01:13:47;11.00;;;7.35;;
74749;SDS011;63269;53.330;-6.288;2023-04-24T01:16:13;9.35;;;6.40;;
74749;SDS011;63269;53.330;-6.288;2023-04-24T01:18:42;10.73;;;7.38;;
74749;SDS011;63269;53.330;-6.288;2023-04-24T01:21:09;11.95;;;6.82;;
74749;SDS011;63269;53.330;-6.288;2023-04-24T01:23:35;8.07;;;6.07;;
74749;SDS011;63269;53.330;-6.288;2023-04-24T01:26:01;10.27;;;5.78;;
74749;SDS011;63269;53.330;-6.288;2023-04-24T01:28:26;9.70;;;6.45;;
74749;SDS011;63269;53.330;-6.288;2023-04-24T01:30:52;9.15;;;6.20;;
74749;SDS011;63269;53.330;-6.288;2023-04-24T01:33:18;8.68;;;6.50;;
74749;SDS011;63269;53.330;-6.288;2023-04-24T01:35:45;9.45;;;5.50;;
74749;SDS011;63269;53.330;-6.288;2023-04-24T01:38:11;10.80;;;5.75;;
74749;SDS011;63269;53.330;-6.288;2023-04-24T01:40:36;8.55;;;5.38;;
74749;SDS011;63269;53.330;-6.288;2023-04-24T01:43:02;7.95;;;5.15;;
74749;SDS011;63269;53.330;-6.288;2023-04-24T01:45:28;7.57;;;5.10;;
74749;SDS011;63269;53.330;-6.288;2023-04-24T01:47:53;9.52;;;5.45;;
74749;SDS011;63269;53.330;-6.288;2023-04-24T01:50:19;5.40;;;4.70;;
74749;SDS011;63269;53.330;-6.288;2023-04-24T01:52:45;6.82;;;4.95;;
74749;SDS011;63269;53.330;-6.288;2023-04-24T01:55:10;9.70;;;5.43;;
74749;SDS011;63269;53.330;-6.288;2023-04-24T01:57:35;7.00;;;5.00;;
74749;SDS011;63269;53.330;-6.288;2023-04-24T02:00:01;6.97;;;4.20;;
74749;SDS011;63269;53.330;-6.288;2023-04-24T02:02:29;5.07;;;4.07;;
74749;SDS011;63269;53.330;-6.288;2023-04-24T02:04:55;7.13;;;4.78;;
74749;SDS011;63269;53.330;-6.288;2023-04-24T02:07:21;6.50;;;4.60;;
74749;SDS011;63269;53.330;-6.288;2023-04-24T02:09:46;6.95;;;4.68;;
74749;SDS011;63269;53.330;-6.288;2023-04-24T02:12:12;5.65;;;4.38;;
74749;SDS011;63269;53.330;-6.288;2023-04-24T02:14:38;6.63;;;4.18;;
74749;SDS011;63269;53.330;-6.288;2023-04-24T02:17:03;6.97;;;4.20;;
74749;SDS011;63269;53.330;-6.288;2023-04-24T02:19:29;7.20;;;4.72;;
74749;SDS011;63269;53.330;-6.288;2023-04-24T02:21:55;7.88;;;4.88;;
74749;SDS011;63269;53.330;-6.288;2023-04-24T02:24:20;5.78;;;4.13;;
74749;SDS011;63269;53.330;-6.288;2023-04-24T02:26:46;5.82;;;4.07;;
74749;SDS011;63269;53.330;-6.288;2023-04-24T02:29:11;6.65;;;4.13;;
74749;SDS011;63269;53.330;-6.288;2023-04-24T02:31:37;5.88;;;3.65;;
74749;SDS011;63269;53.330;-6.288;2023-04-24T02:34:02;5.45;;;3.58;;
74749;SDS011;63269;53.330;-6.288;2023-04-24T02:36:27;7.85;;;3.90;;
74749;SDS011;63269;53.330;-6.288;2023-04-24T02:38:53;7.07;;;4.25;;
74749;SDS011;63269;53.330;-6.288;2023-04-24T02:41:18;4.13;;;3.22;;
74749;SDS011;63269;53.330;-6.288;2023-04-24T02:43:44;6.65;;;3.75;;
74749;SDS011;63269;53.330;-6.288;2023-04-24T02:46:10;5.22;;;3.17;;
74749;SDS011;63269;53.330;-6.288;2023-04-24T02:48:36;5.20;;;3.92;;
74749;SDS011;63269;53.330;-6.288;2023-04-24T02:51:01;6.60;;;3.95;;
74749;SDS011;63269;53.330;-6.288;2023-04-24T02:53:26;7.22;;;3.60;;
74749;SDS011;63269;53.330;-6.288;2023-04-24T02:55:52;5.35;;;3.38;;
74749;SDS011;63269;53.330;-6.288;2023-04-24T02:58:17;5.13;;;3.50;;
74749;SDS011;63269;53.330;-6.288;2023-04-24T03:00:45;5.15;;;3.22;;
74749;SDS011;63269;53.330;-6.288;2023-04-24T03:03:11;6.32;;;3.35;;
74749;SDS011;63269;53.330;-6.288;2023-04-24T03:05:36;7.40;;;3.63;;
74749;SDS011;63269;53.330;-6.288;2023-04-24T03:08:02;6.50;;;3.90;;
74749;SDS011;63269;53.330;-6.288;2023-04-24T03:10:27;5.35;;;3.40;;
74749;SDS011;63269;53.330;-6.288;2023-04-24T03:12:52;5.43;;;3.35;;
74749;SDS011;63269;53.330;-6.288;2023-04-24T03:15:19;6.50;;;3.17;;
74749;SDS011;63269;53.330;-6.288;2023-04-24T03:17:45;6.07;;;3.67;;
74749;SDS011;63269;53.330;-6.288;2023-04-24T03:20:10;7.25;;;3.40;;
74749;SDS011;63269;53.330;-6.288;2023-04-24T03:22:36;4.72;;;3.08;;
74749;SDS011;63269;53.330;-6.288;2023-04-24T03:25:01;5.22;;;3.03;;
74749;SDS011;63269;53.330;-6.288;2023-04-24T03:27:27;4.32;;;3.13;;
74749;SDS011;63269;53.330;-6.288;2023-04-24T03:29:52;6.10;;;3.38;;
74749;SDS011;63269;53.330;-6.288;2023-04-24T03:32:20;3.60;;;2.63;;
74749;SDS011;63269;53.330;-6.288;2023-04-24T03:34:47;6.65;;;3.60;;
74749;SDS011;63269;53.330;-6.288;2023-04-24T03:37:16;5.68;;;3.30;;
74749;SDS011;63269;53.330;-6.288;2023-04-24T03:39:42;5.60;;;3.03;;
74749;SDS011;63269;53.330;-6.288;2023-04-24T03:42:08;4.97;;;2.90;;
74749;SDS011;63269;53.330;-6.288;2023-04-24T03:44:33;4.53;;;2.95;;
74749;SDS011;63269;53.330;-6.288;2023-04-24T03:47:00;5.50;;;2.80;;
74749;SDS011;63269;53.330;-6.288;2023-04-24T03:49:25;4.00;;;2.40;;
74749;SDS011;63269;53.330;-6.288;2023-04-24T03:51:51;4.60;;;2.80;;
74749;SDS011;63269;53.330;-6.288;2023-04-24T03:54:17;4.90;;;3.03;;
74749;SDS011;63269;53.330;-6.288;2023-04-24T03:56:43;4.28;;;2.83;;
74749;SDS011;63269;53.330;-6.288;2023-04-24T03:59:08;5.35;;;2.70;;
74749;SDS011;63269;53.330;-6.288;2023-04-24T04:01:33;4.35;;;2.70;;
74749;SDS011;63269;53.330;-6.288;2023-04-24T04:04:02;3.75;;;2.63;;
74749;SDS011;63269;53.330;-6.288;2023-04-24T04:06:28;3.63;;;2.47;;
74749;SDS011;63269;53.330;-6.288;2023-04-24T04:08:55;3.22;;;2.20;;
74749;SDS011;63269;53.330;-6.288;2023-04-24T04:11:21;4.72;;;2.75;;
74749;SDS011;63269;53.330;-6.288;2023-04-24T04:13:47;3.90;;;2.40;;
74749;SDS011;63269;53.330;-6.288;2023-04-24T04:16:13;3.47;;;2.38;;
74749;SDS011;63269;53.330;-6.288;2023-04-24T04:18:38;4.15;;;2.55;;
74749;SDS011;63269;53.330;-6.288;2023-04-24T04:21:04;3.40;;;2.13;;
74749;SDS011;63269;53.330;-6.288;2023-04-24T04:23:29;4.22;;;2.40;;
74749;SDS011;63269;53.330;-6.288;2023-04-24T04:25:55;5.50;;;2.70;;
74749;SDS011;63269;53.330;-6.288;2023-04-24T04:28:20;3.38;;;2.20;;
74749;SDS011;63269;53.330;-6.288;2023-04-24T04:30:46;3.47;;;2.17;;
74749;SDS011;63269;53.330;-6.288;2023-04-24T04:33:12;4.18;;;2.53;;
74749;SDS011;63269;53.330;-6.288;2023-04-24T04:35:38;3.58;;;1.83;;
74749;SDS011;63269;53.330;-6.288;2023-04-24T04:38:03;3.65;;;2.15;;
74749;SDS011;63269;53.330;-6.288;2023-04-24T04:40:29;3.97;;;1.90;;
74749;SDS011;63269;53.330;-6.288;2023-04-24T04:42:55;3.15;;;1.92;;
74749;SDS011;63269;53.330;-6.288;2023-04-24T04:45:20;3.72;;;1.83;;
74749;SDS011;63269;53.330;-6.288;2023-04-24T04:47:46;5.00;;;2.15;;
74749;SDS011;63269;53.330;-6.288;2023-04-24T04:50:12;2.60;;;1.80;;
74749;SDS011;63269;53.330;-6.288;2023-04-24T04:52:38;3.05;;;1.75;;
74749;SDS011;63269;53.330;-6.288;2023-04-24T04:55:04;3.53;;;1.80;;
74749;SDS011;63269;53.330;-6.288;2023-04-24T04:57:30;3.53;;;1.88;;
74749;SDS011;63269;53.330;-6.288;2023-04-24T04:59:56;3.15;;;1.80;;
74749;SDS011;63269;53.330;-6.288;2023-04-24T05:02:21;3.40;;;1.58;;
74749;SDS011;63269;53.330;-6.288;2023-04-24T05:04:46;2.95;;;1.40;;
74749;SDS011;63269;53.330;-6.288;2023-04-24T05:07:12;4.25;;;1.83;;
74749;SDS011;63269;53.330;-6.288;2023-04-24T05:09:37;4.72;;;1.98;;
74749;SDS011;63269;53.330;-6.288;2023-04-24T05:12:03;3.13;;;1.55;;
74749;SDS011;63269;53.330;-6.288;2023-04-24T05:14:28;2.35;;;1.50;;
74749;SDS011;63269;53.330;-6.288;2023-04-24T05:16:54;3.67;;;1.63;;
74749;SDS011;63269;53.330;-6.288;2023-04-24T05:19:19;4.38;;;1.67;;
74749;SDS011;63269;53.330;-6.288;2023-04-24T05:21:45;4.63;;;2.20;;
74749;SDS011;63269;53.330;-6.288;2023-04-24T05:24:11;3.80;;;1.58;;
74749;SDS011;63269;53.330;-6.288;2023-04-24T05:26:36;6.00;;;2.17;;
74749;SDS011;63269;53.330;-6.288;2023-04-24T05:29:02;4.97;;;1.75;;
74749;SDS011;63269;53.330;-6.288;2023-04-24T05:31:27;5.85;;;1.85;;
74749;SDS011;63269;53.330;-6.288;2023-04-24T05:33:53;4.68;;;2.38;;
74749;SDS011;63269;53.330;-6.288;2023-04-24T05:36:18;3.85;;;1.70;;
74749;SDS011;63269;53.330;-6.288;2023-04-24T05:38:44;5.20;;;1.80;;
74749;SDS011;63269;53.330;-6.288;2023-04-24T05:41:09;3.13;;;1.52;;
74749;SDS011;63269;53.330;-6.288;2023-04-24T05:43:34;4.22;;;1.80;;
74749;SDS011;63269;53.330;-6.288;2023-04-24T05:46:00;4.10;;;1.60;;
74749;SDS011;63269;53.330;-6.288;2023-04-24T05:48:25;3.97;;;2.05;;
74749;SDS011;63269;53.330;-6.288;2023-04-24T05:50:51;5.43;;;1.77;;
74749;SDS011;63269;53.330;-6.288;2023-04-24T05:53:17;4.82;;;1.67;;
74749;SDS011;63269;53.330;-6.288;2023-04-24T05:55:43;4.75;;;1.45;;
74749;SDS011;63269;53.330;-6.288;2023-04-24T05:58:09;3.75;;;1.45;;
74749;SDS011;63269;53.330;-6.288;2023-04-24T06:00:34;3.97;;;1.60;;
74749;SDS011;63269;53.330;-6.288;2023-04-24T06:03:00;3.60;;;1.52;;
74749;SDS011;63269;53.330;-6.288;2023-04-24T06:05:25;3.72;;;1.70;;
74749;SDS011;63269;53.330;-6.288;2023-04-24T06:07:51;3.60;;;1.50;;
74749;SDS011;63269;53.330;-6.288;2023-04-24T06:10:16;4.03;;;1.48;;
74749;SDS011;63269;53.330;-6.288;2023-04-24T06:12:42;4.97;;;2.47;;
74749;SDS011;63269;53.330;-6.288;2023-04-24T06:15:07;2.72;;;1.35;;
74749;SDS011;63269;53.330;-6.288;2023-04-24T06:17:33;3.53;;;1.38;;
74749;SDS011;63269;53.330;-6.288;2023-04-24T06:19:59;4.75;;;1.58;;
74749;SDS011;63269;53.330;-6.288;2023-04-24T06:22:24;2.80;;;1.15;;
74749;SDS011;63269;53.330;-6.288;2023-04-24T06:24:50;3.50;;;1.42;;
74749;SDS011;63269;53.330;-6.288;2023-04-24T06:27:15;3.97;;;1.30;;
74749;SDS011;63269;53.330;-6.288;2023-04-24T06:29:40;2.80;;;1.23;;
74749;SDS011;63269;53.330;-6.288;2023-04-24T06:32:06;5.25;;;2.60;;
74749;SDS011;63269;53.330;-6.288;2023-04-24T06:34:31;2.22;;;1.15;;
74749;SDS011;63269;53.330;-6.288;2023-04-24T06:36:58;4.38;;;1.08;;
74749;SDS011;63269;53.330;-6.288;2023-04-24T06:39:24;6.28;;;1.50;;
74749;SDS011;63269;53.330;-6.288;2023-04-24T06:41:50;4.30;;;1.20;;
74749;SDS011;63269;53.330;-6.288;2023-04-24T06:44:15;3.53;;;1.45;;
74749;SDS011;63269;53.330;-6.288;2023-04-24T06:46:41;3.35;;;1.25;;
74749;SDS011;63269;53.330;-6.288;2023-04-24T06:49:07;2.42;;;1.02;;
74749;SDS011;63269;53.330;-6.288;2023-04-24T06:51:32;3.33;;;1.23;;
74749;SDS011;63269;53.330;-6.288;2023-04-24T06:53:58;2.53;;;1.00;;
74749;SDS011;63269;53.330;-6.288;2023-04-24T06:56:24;4.13;;;1.40;;
74749;SDS011;63269;53.330;-6.288;2023-04-24T06:58:50;4.22;;;1.42;;
74749;SDS011;63269;53.330;-6.288;2023-04-24T07:01:16;3.85;;;1.23;;
74749;SDS011;63269;53.330;-6.288;2023-04-24T07:03:42;4.65;;;2.03;;
74749;SDS011;63269;53.330;-6.288;2023-04-24T07:06:07;2.25;;;1.17;;
74749;SDS011;63269;53.330;-6.288;2023-04-24T07:08:33;1.20;;;0.73;;
74749;SDS011;63269;53.330;-6.288;2023-04-24T07:10:58;3.75;;;1.02;;
74749;SDS011;63269;53.330;-6.288;2023-04-24T07:13:24;2.22;;;1.13;;
74749;SDS011;63269;53.330;-6.288;2023-04-24T07:15:51;3.70;;;0.90;;
74749;SDS011;63269;53.330;-6.288;2023-04-24T07:18:20;1.90;;;0.90;;
74749;SDS011;63269;53.330;-6.288;2023-04-24T07:20:46;2.80;;;1.10;;
74749;SDS011;63269;53.330;-6.288;2023-04-24T07:23:11;2.58;;;1.17;;
74749;SDS011;63269;53.330;-6.288;2023-04-24T07:25:37;1.88;;;1.10;;
74749;SDS011;63269;53.330;-6.288;2023-04-24T07:28:03;3.08;;;1.27;;
74749;SDS011;63269;53.330;-6.288;2023-04-24T07:30:29;3.80;;;1.20;;
74749;SDS011;63269;53.330;-6.288;2023-04-24T07:32:55;3.35;;;1.10;;
74749;SDS011;63269;53.330;-6.288;2023-04-24T07:35:21;2.40;;;1.27;;
74749;SDS011;63269;53.330;-6.288;2023-04-24T07:37:46;3.17;;;1.17;;
74749;SDS011;63269;53.330;-6.288;2023-04-24T07:40:12;2.47;;;1.30;;
74749;SDS011;63269;53.330;-6.288;2023-04-24T07:42:38;3.47;;;1.02;;
74749;SDS011;63269;53.330;-6.288;2023-04-24T07:45:04;3.15;;;0.85;;
74749;SDS011;63269;53.330;-6.288;2023-04-24T07:47:30;3.65;;;1.13;;
74749;SDS011;63269;53.330;-6.288;2023-04-24T07:49:56;2.65;;;0.75;;
74749;SDS011;63269;53.330;-6.288;2023-04-24T07:52:22;2.20;;;1.17;;
74749;SDS011;63269;53.330;-6.288;2023-04-24T07:54:48;2.50;;;0.90;;
74749;SDS011;63269;53.330;-6.288;2023-04-24T07:57:15;3.60;;;1.25;;
74749;SDS011;63269;53.330;-6.288;2023-04-24T07:59:40;5.10;;;1.65;;
74749;SDS011;63269;53.330;-6.288;2023-04-24T08:02:06;3.17;;;1.13;;
74749;SDS011;63269;53.330;-6.288;2023-04-24T08:04:32;3.22;;;1.00;;
74749;SDS011;63269;53.330;-6.288;2023-04-24T08:06:57;2.50;;;1.10;;
74749;SDS011;63269;53.330;-6.288;2023-04-24T08:09:23;2.10;;;1.10;;
74749;SDS011;63269;53.330;-6.288;2023-04-24T08:11:48;2.03;;;0.85;;
74749;SDS011;63269;53.330;-6.288;2023-04-24T08:14:14;1.63;;;0.80;;
74749;SDS011;63269;53.330;-6.288;2023-04-24T08:16:40;2.20;;;0.80;;
74749;SDS011;63269;53.330;-6.288;2023-04-24T08:19:05;2.75;;;1.10;;
74749;SDS011;63269;53.330;-6.288;2023-04-24T08:21:31;2.53;;;1.10;;
74749;SDS011;63269;53.330;-6.288;2023-04-24T08:23:57;2.38;;;0.90;;
74749;SDS011;63269;53.330;-6.288;2023-04-24T08:26:22;1.80;;;0.80;;
74749;SDS011;63269;53.330;-6.288;2023-04-24T08:28:48;2.67;;;0.95;;
74749;SDS011;63269;53.330;-6.288;2023-04-24T08:31:13;4.18;;;0.90;;
74749;SDS011;63269;53.330;-6.288;2023-04-24T08:33:39;3.47;;;0.90;;
74749;SDS011;63269;53.330;-6.288;2023-04-24T08:36:06;3.75;;;1.25;;
74749;SDS011;63269;53.330;-6.288;2023-04-24T08:38:32;3.03;;;1.30;;
74749;SDS011;63269;53.330;-6.288;2023-04-24T08:40:59;5.45;;;1.75;;
74749;SDS011;63269;53.330;-6.288;2023-04-24T08:43:26;3.20;;;1.13;;
74749;SDS011;63269;53.330;-6.288;2023-04-24T08:45:52;2.47;;;1.17;;
74749;SDS011;63269;53.330;-6.288;2023-04-24T08:48:20;3.72;;;1.20;;
74749;SDS011;63269;53.330;-6.288;2023-04-24T08:50:47;2.70;;;1.15;;
74749;SDS011;63269;53.330;-6.288;2023-04-24T08:53:13;3.60;;;1.08;;
74749;SDS011;63269;53.330;-6.288;2023-04-24T08:55:39;3.05;;;1.20;;
74749;SDS011;63269;53.330;-6.288;2023-04-24T08:58:06;3.65;;;1.63;;
74749;SDS011;63269;53.330;-6.288;2023-04-24T09:00:31;2.65;;;1.33;;
74749;SDS011;63269;53.330;-6.288;2023-04-24T09:02:57;2.72;;;1.10;;
74749;SDS011;63269;53.330;-6.288;2023-04-24T09:05:25;3.05;;;1.27;;
74749;SDS011;63269;53.330;-6.288;2023-04-24T09:07:55;4.35;;;1.55;;
74749;SDS011;63269;53.330;-6.288;2023-04-24T09:10:22;4.90;;;1.42;;
74749;SDS011;63269;53.330;-6.288;2023-04-24T09:12:52;4.80;;;1.45;;
74749;SDS011;63269;53.330;-6.288;2023-04-24T09:17:45;3.88;;;1.70;;
74749;SDS011;63269;53.330;-6.288;2023-04-24T09:20:11;4.78;;;1.13;;
74749;SDS011;63269;53.330;-6.288;2023-04-24T09:22:36;4.53;;;1.20;;
74749;SDS011;63269;53.330;-6.288;2023-04-24T09:25:11;3.08;;;1.33;;
74749;SDS011;63269;53.330;-6.288;2023-04-24T09:27:41;4.93;;;1.50;;
74749;SDS011;63269;53.330;-6.288;2023-04-24T09:30:08;3.35;;;1.30;;
74749;SDS011;63269;53.330;-6.288;2023-04-24T09:32:34;3.75;;;1.20;;
74749;SDS011;63269;53.330;-6.288;2023-04-24T09:35:09;4.13;;;1.50;;
74749;SDS011;63269;53.330;-6.288;2023-04-24T09:37:40;3.38;;;1.25;;
74749;SDS011;63269;53.330;-6.288;2023-04-24T09:40:16;3.40;;;0.93;;
74749;SDS011;63269;53.330;-6.288;2023-04-24T09:42:52;2.67;;;1.20;;
74749;SDS011;63269;53.330;-6.288;2023-04-24T09:45:18;6.07;;;1.25;;
74749;SDS011;63269;53.330;-6.288;2023-04-24T09:47:45;4.07;;;1.45;;
74749;SDS011;63269;53.330;-6.288;2023-04-24T09:52:40;3.42;;;1.05;;
74749;SDS011;63269;53.330;-6.288;2023-04-24T09:55:16;5.15;;;1.27;;
74749;SDS011;63269;53.330;-6.288;2023-04-24T09:57:53;3.85;;;1.23;;
74749;SDS011;63269;53.330;-6.288;2023-04-24T10:00:22;2.70;;;1.48;;
74749;SDS011;63269;53.330;-6.288;2023-04-24T10:02:58;5.15;;;1.25;;
74749;SDS011;63269;53.330;-6.288;2023-04-24T10:05:36;4.07;;;1.30;;
74749;SDS011;63269;53.330;-6.288;2023-04-24T10:08:03;3.20;;;1.05;;
74749;SDS011;63269;53.330;-6.288;2023-04-24T10:10:30;3.13;;;1.30;;
74749;SDS011;63269;53.330;-6.288;2023-04-24T10:12:57;2.53;;;1.00;;
74749;SDS011;63269;53.330;-6.288;2023-04-24T10:15:24;4.55;;;1.30;;
74749;SDS011;63269;53.330;-6.288;2023-04-24T10:17:51;3.38;;;1.30;;
74749;SDS011;63269;53.330;-6.288;2023-04-24T10:20:23;3.67;;;1.43;;
74749;SDS011;63269;53.330;-6.288;2023-04-24T10:22:50;4.13;;;1.38;;
74749;SDS011;63269;53.330;-6.288;2023-04-24T10:25:24;2.60;;;1.20;;
74749;SDS011;63269;53.330;-6.288;2023-04-24T10:27:54;4.32;;;1.40;;
74749;SDS011;63269;53.330;-6.288;2023-04-24T10:30:24;3.30;;;1.30;;
74749;SDS011;63269;53.330;-6.288;2023-04-24T10:33:03;5.30;;;1.33;;
74749;SDS011;63269;53.330;-6.288;2023-04-24T10:35:37;2.22;;;1.20;;
74749;SDS011;63269;53.330;-6.288;2023-04-24T10:38:11;3.08;;;1.40;;
74749;SDS011;63269;53.330;-6.288;2023-04-24T10:40:37;3.58;;;1.10;;
74749;SDS011;63269;53.330;-6.288;2023-04-24T10:43:04;2.47;;;1.15;;
74749;SDS011;63269;53.330;-6.288;2023-04-24T10:45:35;3.45;;;1.45;;
74749;SDS011;63269;53.330;-6.288;2023-04-24T10:48:01;3.15;;;0.90;;
74749;SDS011;63269;53.330;-6.288;2023-04-24T10:50:28;2.60;;;1.25;;
74749;SDS011;63269;53.330;-6.288;2023-04-24T10:53:16;3.83;;;1.08;;
74749;SDS011;63269;53.330;-6.288;2023-04-24T10:55:46;3.55;;;1.02;;
74749;SDS011;63269;53.330;-6.288;2023-04-24T10:58:50;2.95;;;1.30;;
74749;SDS011;63269;53.330;-6.288;2023-04-24T11:01:30;3.63;;;1.27;;
74749;SDS011;63269;53.330;-6.288;2023-04-24T11:04:01;2.50;;;1.10;;
74749;SDS011;63269;53.330;-6.288;2023-04-24T11:06:34;3.97;;;1.23;;
74749;SDS011;63269;53.330;-6.288;2023-04-24T11:09:05;3.75;;;1.30;;
74749;SDS011;63269;53.330;-6.288;2023-04-24T11:11:32;3.95;;;1.40;;
74749;SDS011;63269;53.330;-6.288;2023-04-24T11:16:34;3.13;;;1.10;;
74749;SDS011;63269;53.330;-6.288;2023-04-24T11:19:29;5.10;;;1.50;;
74749;SDS011;63269;53.330;-6.288;2023-04-24T11:22:01;3.92;;;1.00;;
74749;SDS011;63269;53.330;-6.288;2023-04-24T11:24:48;3.00;;;1.27;;
74749;SDS011;63269;53.330;-6.288;2023-04-24T11:27:17;4.70;;;1.40;;
74749;SDS011;63269;53.330;-6.288;2023-04-24T11:32:25;4.40;;;1.35;;
74749;SDS011;63269;53.330;-6.288;2023-04-24T11:34:51;3.47;;;1.42;;
74749;SDS011;63269;53.330;-6.288;2023-04-24T11:37:19;4.50;;;1.52;;
74749;SDS011;63269;53.330;-6.288;2023-04-24T11:39:44;4.82;;;1.67;;
74749;SDS011;63269;53.330;-6.288;2023-04-24T11:42:10;3.97;;;1.83;;
74749;SDS011;63269;53.330;-6.288;2023-04-24T11:44:38;2.70;;;1.50;;
74749;SDS011;63269;53.330;-6.288;2023-04-24T11:47:06;3.80;;;1.65;;
74749;SDS011;63269;53.330;-6.288;2023-04-24T11:49:37;3.90;;;1.48;;
74749;SDS011;63269;53.330;-6.288;2023-04-24T11:52:04;5.40;;;1.20;;
74749;SDS011;63269;53.330;-6.288;2023-04-24T11:54:30;4.03;;;1.55;;
74749;SDS011;63269;53.330;-6.288;2023-04-24T11:56:56;2.95;;;1.20;;
74749;SDS011;63269;53.330;-6.288;2023-04-24T11:59:22;3.42;;;1.20;;
74749;SDS011;63269;53.330;-6.288;2023-04-24T12:01:47;4.60;;;1.45;;
74749;SDS011;63269;53.330;-6.288;2023-04-24T12:04:14;2.70;;;1.48;;
74749;SDS011;63269;53.330;-6.288;2023-04-24T12:07:14;3.85;;;1.80;;
74749;SDS011;63269;53.330;-6.288;2023-04-24T12:09:40;5.47;;;1.48;;
74749;SDS011;63269;53.330;-6.288;2023-04-24T12:12:07;2.85;;;1.50;;
74749;SDS011;63269;53.330;-6.288;2023-04-24T12:14:32;3.00;;;1.63;;
74749;SDS011;63269;53.330;-6.288;2023-04-24T12:16:58;2.88;;;1.20;;
74749;SDS011;63269;53.330;-6.288;2023-04-24T12:19:23;5.25;;;1.80;;
74749;SDS011;63269;53.330;-6.288;2023-04-24T12:22:01;3.60;;;1.30;;
74749;SDS011;63269;53.330;-6.288;2023-04-24T12:24:28;5.20;;;1.70;;
74749;SDS011;63269;53.330;-6.288;2023-04-24T12:26:55;3.70;;;1.20;;
74749;SDS011;63269;53.330;-6.288;2023-04-24T12:29:22;3.47;;;1.13;;
74749;SDS011;63269;53.330;-6.288;2023-04-24T12:31:48;5.05;;;1.88;;
74749;SDS011;63269;53.330;-6.288;2023-04-24T12:36:45;2.97;;;1.52;;
74749;SDS011;63269;53.330;-6.288;2023-04-24T12:39:18;4.80;;;1.55;;
74749;SDS011;63269;53.330;-6.288;2023-04-24T12:41:54;4.53;;;1.88;;
74749;SDS011;63269;53.330;-6.288;2023-04-24T12:44:29;3.65;;;1.40;;
74749;SDS011;63269;53.330;-6.288;2023-04-24T12:46:56;4.30;;;1.27;;
74749;SDS011;63269;53.330;-6.288;2023-04-24T12:49:22;4.25;;;1.50;;
74749;SDS011;63269;53.330;-6.288;2023-04-24T12:51:47;3.30;;;1.65;;
74749;SDS011;63269;53.330;-6.288;2023-04-24T12:54:13;4.43;;;1.85;;
74749;SDS011;63269;53.330;-6.288;2023-04-24T12:56:38;4.93;;;1.55;;
74749;SDS011;63269;53.330;-6.288;2023-04-24T12:59:04;3.67;;;1.30;;
74749;SDS011;63269;53.330;-6.288;2023-04-24T13:01:30;3.05;;;1.58;;
74749;SDS011;63269;53.330;-6.288;2023-04-24T13:03:56;4.55;;;1.92;;
74749;SDS011;63269;53.330;-6.288;2023-04-24T13:06:21;3.67;;;1.75;;
74749;SDS011;63269;53.330;-6.288;2023-04-24T13:08:46;4.30;;;1.27;;
74749;SDS011;63269;53.330;-6.288;2023-04-24T13:11:13;3.97;;;1.40;;
74749;SDS011;63269;53.330;-6.288;2023-04-24T13:13:39;6.20;;;1.77;;
74749;SDS011;63269;53.330;-6.288;2023-04-24T13:16:04;4.18;;;1.27;;
74749;SDS011;63269;53.330;-6.288;2023-04-24T13:18:30;3.50;;;1.30;;
74749;SDS011;63269;53.330;-6.288;2023-04-24T13:20:55;4.90;;;1.58;;
74749;SDS011;63269;53.330;-6.288;2023-04-24T13:23:21;3.38;;;1.52;;
74749;SDS011;63269;53.330;-6.288;2023-04-24T13:25:48;6.85;;;2.40;;
74749;SDS011;63269;53.330;-6.288;2023-04-24T13:28:13;8.50;;;2.00;;
74749;SDS011;63269;53.330;-6.288;2023-04-24T13:30:38;5.25;;;1.92;;
74749;SDS011;63269;53.330;-6.288;2023-04-24T13:33:04;8.55;;;1.85;;
74749;SDS011;63269;53.330;-6.288;2023-04-24T13:35:30;3.05;;;1.38;;
74749;SDS011;63269;53.330;-6.288;2023-04-24T13:37:55;5.28;;;1.95;;
74749;SDS011;63269;53.330;-6.288;2023-04-24T13:40:21;5.45;;;1.52;;
74749;SDS011;63269;53.330;-6.288;2023-04-24T13:42:46;4.13;;;1.50;;
74749;SDS011;63269;53.330;-6.288;2023-04-24T13:45:12;4.10;;;1.63;;
74749;SDS011;63269;53.330;-6.288;2023-04-24T13:47:37;4.05;;;1.50;;
74749;SDS011;63269;53.330;-6.288;2023-04-24T13:50:05;4.35;;;1.75;;
74749;SDS011;63269;53.330;-6.288;2023-04-24T13:52:32;4.15;;;1.50;;
74749;SDS011;63269;53.330;-6.288;2023-04-24T13:54:58;3.17;;;1.20;;
74749;SDS011;63269;53.330;-6.288;2023-04-24T13:57:23;2.50;;;1.25;;
74749;SDS011;63269;53.330;-6.288;2023-04-24T13:59:49;5.90;;;1.85;;
74749;SDS011;63269;53.330;-6.288;2023-04-24T14:02:14;5.07;;;1.30;;
74749;SDS011;63269;53.330;-6.288;2023-04-24T14:04:40;4.57;;;1.48;;
74749;SDS011;63269;53.330;-6.288;2023-04-24T14:07:05;5.75;;;1.73;;
74749;SDS011;63269;53.330;-6.288;2023-04-24T14:09:31;5.03;;;1.70;;
74749;SDS011;63269;53.330;-6.288;2023-04-24T14:11:56;3.78;;;1.40;;
74749;SDS011;63269;53.330;-6.288;2023-04-24T14:14:22;5.60;;;1.20;;
74749;SDS011;63269;53.330;-6.288;2023-04-24T14:16:48;4.40;;;1.40;;
74749;SDS011;63269;53.330;-6.288;2023-04-24T14:19:13;4.18;;;1.40;;
74749;SDS011;63269;53.330;-6.288;2023-04-24T14:21:38;3.88;;;1.45;;
74749;SDS011;63269;53.330;-6.288;2023-04-24T14:24:04;3.25;;;1.25;;
74749;SDS011;63269;53.330;-6.288;2023-04-24T14:26:29;5.22;;;2.05;;
74749;SDS011;63269;53.330;-6.288;2023-04-24T14:28:55;5.65;;;2.15;;
74749;SDS011;63269;53.330;-6.288;2023-04-24T14:31:20;3.80;;;1.50;;
74749;SDS011;63269;53.330;-6.288;2023-04-24T14:33:46;5.05;;;1.48;;
74749;SDS011;63269;53.330;-6.288;2023-04-24T14:36:11;2.25;;;1.27;;
74749;SDS011;63269;53.330;-6.288;2023-04-24T14:38:37;2.97;;;1.30;;
74749;SDS011;63269;53.330;-6.288;2023-04-24T14:41:02;4.75;;;1.48;;
74749;SDS011;63269;53.330;-6.288;2023-04-24T14:43:34;2.53;;;1.42;;